Portada
METAR-TAF:

METAR-TAF

Aeroports :

Aeroport Internacional Diori Hamani

Niamey, Níger

latitud: 13-29N, longitud: 002-10E, altitud: 223 m

Observació

L'informe es va fer fa 1 hora i 4 minuts, a les 14:00 UTC
Vent 16 kt del Est
Temperatura 35°C
Humitat 8%
Pressió 1011 hPa
Visibilitat: 4500 m
torb alta de pols

METAR: DRRN 061400Z 08016KT 4500 BLDU NSC 35/M04 Q1011 NOSIG

Hora: 16:04 (15:04 UTC)

Pronòstic

L'informe es va fer fa 4 hores i 4 minuts, a les 11:00 UTC
Pronòstic vàlid del 06 a les 12 UTC al 07 a les 18 UTC
Vent 12 kt del Est/Nord-Est
Visibilitat: 3500 m
Pols estès
Temporalment
l' 06 a les 17 UTC al 06 a les 20 UTC
Visibilitat: 2000 m
Pols estès
Temporalment
l' 07 a les 06 UTC al 07 a les 09 UTC
Visibilitat: 2000 m
Pols estès

TAF: DRRN 061100Z 0612/0718 06012KT 3500 DU NSC TEMPO 0617/0620 2000 DU TEMPO 0706/0709 2000 DU

Observacions i pronòstics meteorològics de més de 4000 aeroports (METAR i TAF).

Les estacions disponibles són els punts grocs i vermells al mapa.

Posi el ratolí al punt desitjat per veure el nom de l'estació.

Feu clic per veure les observacions i els pronòstics meteorològics.

Per canviar el mapa: feu clic els botons verds amb una creu de color negre per apropar; al botó verd amb un guió per allunyar la imatge; o en les fletxes verdes per a mapes adjacents.


METAR-TAF: